Time;durP1;ratioP1;P1;durP2;ratioP2;P2;SDS_P1;SDS_P2;PMS_P1;PMS_P2;Temp;Humidity;BMP_temperature;BMP_pressure;BME280_temperature;BME280_humidity;BME280_pressure;Samples;Min_cycle;Max_cycle;Signal;HPM_P1;HPM_P2
2022/05/30 00:02:16;;;;;;;;;;;;;;;9.06;67.88;92129.53;2068398;69;20050;-73
2022/05/30 00:04:42;;;;;;;;;;;;;;;9.20;67.71;92129.59;2055361;70;20150;-73
2022/05/30 00:07:07;;;;;;;;;;;;;;;9.13;68.77;92122.94;2055337;70;20050;-72
2022/05/30 00:09:34;;;;;;;;;;;;;;;9.07;69.97;92123.31;2055339;70;20149;-73
2022/05/30 00:12:00;;;;;;;;;;;;;;;9.13;67.98;92129.28;2051763;70;20252;-72
2022/05/30 00:14:26;;;;;;;;;;;;;;;8.90;69.97;92132.16;2055192;69;20150;-72
2022/05/30 00:16:52;;;;;;;;;;;;;;;8.93;70.78;92127.38;2055241;70;20054;-72
2022/05/30 00:19:17;;;;;;;;;;;;;;;8.99;70.79;92117.25;2055261;70;20176;-72
2022/05/30 00:25:11;;;;;;;;;;;;;;;9.09;69.58;92112.19;2054989;69;20052;-72
2022/05/30 00:27:36;;;;;;;;;;;;;;;9.10;69.87;92101.69;2055020;70;20054;-72
2022/05/30 00:33:32;;;;;;;;;;;;;;;9.14;69.51;92099.84;2055264;69;20093;-72
2022/05/30 00:35:57;;;;;;;;;;;;;;;9.15;69.77;92094.94;2054939;69;20103;-72
2022/05/30 00:38:23;;;;;;;;;;;;;;;9.24;69.59;92094.06;2055126;70;20054;-72
2022/05/30 00:40:48;;;;;;;;;;;;;;;9.25;69.86;92095.50;2055242;70;20050;-72
2022/05/30 00:43:35;;;;;;;;;;;;;;;9.33;69.00;92089.63;2068331;69;20418;-72
2022/05/30 00:46:02;;;;;;;;;;;;;;;9.33;69.42;92089.63;2055218;69;20062;-72
2022/05/30 00:48:33;;;;;;;;;;;;;;;9.34;70.03;92088.28;2055128;70;20054;-72
2022/05/30 00:51:01;;;;;;;;;;;;;;;9.31;69.18;92081.81;2068055;69;20049;-72
2022/05/30 00:53:28;;;;;;;;;;;;;;;9.22;70.54;92087.63;2068093;69;20429;-72
2022/05/30 00:59:29;;;;;;;;;;;;;;;9.36;68.70;92094.00;2055114;69;20541;-73
2022/05/30 01:01:55;;;;;;;;;;;;;;;9.35;69.54;92084.84;2068637;69;20086;-73
2022/05/30 01:07:08;;;;;;;;;;;;;;;9.24;69.45;92090.53;2055889;70;20095;-73
2022/05/30 01:09:35;;;;;;;;;;;;;;;9.28;68.50;92101.97;2068720;69;20054;-73
2022/05/30 01:15:30;;;;;;;;;;;;;;;9.31;70.63;92107.09;2055766;69;20049;-73
2022/05/30 01:18:03;;;;;;;;;;;;;;;9.39;69.45;92095.56;2068452;69;20055;-73
2022/05/30 01:20:29;;;;;;;;;;;;;;;9.41;69.90;92093.63;2055564;69;20062;-72
2022/05/30 01:22:54;;;;;;;;;;;;;;;9.50;67.47;92091.97;2068556;69;20501;-72
2022/05/30 01:25:25;;;;;;;;;;;;;;;9.45;65.80;92081.16;2068698;69;20529;-72
2022/05/30 01:28:24;;;;;;;;;;;;;;;9.39;65.36;92073.84;2068767;69;20394;-72
2022/05/30 01:30:53;;;;;;;;;;;;;;;9.40;66.22;92061.25;2068360;69;20058;-72
2022/05/30 01:33:19;;;;;;;;;;;;;;;9.37;67.41;92050.53;2068574;69;20047;-72
2022/05/30 01:35:44;;;;;;;;;;;;;;;9.38;66.74;92035.84;2068686;69;20471;-72
2022/05/30 01:38:13;;;;;;;;;;;;;;;9.41;66.43;92039.50;2060008;69;20087;-73
2022/05/30 01:40:39;;;;;;;;;;;;;;;9.27;69.53;92044.34;2045864;70;20047;-72
2022/05/30 01:46:15;;;;;;;;;;;;;;;9.39;67.33;92042.94;2048210;70;20062;-72
2022/05/30 01:48:46;;;;;;;;;;;;;;;9.32;68.77;92037.59;2048433;70;20054;-72
2022/05/30 01:51:13;;;;;;;;;;;;;;;9.22;68.27;92023.03;2048563;70;20454;-72
2022/05/30 01:53:39;;;;;;;;;;;;;;;9.40;68.11;92015.59;2048444;70;20479;-73
2022/05/30 01:56:24;;;;;;;;;;;;;;;9.42;67.68;92038.88;2048918;69;20138;-72
2022/05/30 02:02:20;;;;;;;;;;;;;;;9.33;69.58;92042.59;2048710;70;20470;-72
2022/05/30 02:04:46;;;;;;;;;;;;;;;9.36;69.65;92040.66;2048321;70;20083;-73
2022/05/30 02:07:11;;;;;;;;;;;;;;;9.30;68.77;92046.66;2048322;70;20479;-72
2022/05/30 02:09:37;;;;;;;;;;;;;;;9.42;67.99;92044.50;2048997;70;20475;-73
2022/05/30 02:12:03;;;;;;;;;;;;;;;9.39;67.56;92045.75;2048314;70;20423;-73
2022/05/30 02:14:43;;;;;;;;;;;;;;;9.30;68.13;92045.91;2046099;70;20055;-72
2022/05/30 02:17:10;;;;;;;;;;;;;;;9.38;66.00;92046.34;2048096;70;20141;-72
2022/05/30 02:19:37;;;;;;;;;;;;;;;8.94;70.66;92056.59;2048866;70;20047;-73
2022/05/30 02:22:12;;;;;;;;;;;;;;;9.22;69.57;92057.44;2048452;70;20050;-72
2022/05/30 02:24:38;;;;;;;;;;;;;;;9.10;70.95;92049.06;2048488;70;20099;-73
2022/05/30 02:27:04;;;;;;;;;;;;;;;9.21;70.22;92036.34;2048174;70;20050;-72
2022/05/30 02:29:30;;;;;;;;;;;;;;;9.28;68.58;92032.50;2048388;70;20158;-73
2022/05/30 02:31:58;;;;;;;;;;;;;;;9.42;64.56;92032.53;2048983;70;20125;-72
2022/05/30 02:40:50;;;;;;;;;;;;;;;9.30;68.99;92040.28;2053576;70;20125;-72
2022/05/30 02:47:16;;;;;;;;;;;;;;;9.35;67.70;92047.63;2055408;69;20085;-72
2022/05/30 02:49:46;;;;;;;;;;;;;;;9.25;67.90;92044.97;2068396;69;20066;-73
2022/05/30 02:55:40;;;;;;;;;;;;;;;9.35;68.33;92037.09;2055513;69;20128;-73
2022/05/30 02:58:06;;;;;;;;;;;;;;;9.35;67.67;92039.91;2068424;69;20086;-72
2022/05/30 03:00:31;;;;;;;;;;;;;;;9.45;68.41;92050.97;2068263;69;20442;-72
2022/05/30 03:06:29;;;;;;;;;;;;;;;9.50;67.57;92051.91;2055212;69;20053;-72
2022/05/30 03:08:56;;;;;;;;;;;;;;;9.43;68.37;92057.19;2055603;69;20054;-72
2022/05/30 03:11:44;;;;;;;;;;;;;;;9.39;69.30;92051.38;2068230;69;20081;-72
2022/05/30 03:14:12;;;;;;;;;;;;;;;9.48;67.57;92057.41;2055473;70;20143;-72
2022/05/30 03:16:37;;;;;;;;;;;;;;;9.39;69.06;92045.00;2068398;69;20058;-72
2022/05/30 03:19:03;;;;;;;;;;;;;;;9.43;67.94;92034.72;2068302;69;20052;-72
2022/05/30 03:21:29;;;;;;;;;;;;;;;9.43;68.06;92039.59;2068336;69;20131;-72
2022/05/30 03:23:54;;;;;;;;;;;;;;;9.41;69.26;92033.91;2055455;70;20054;-72
2022/05/30 03:26:30;;;;;;;;;;;;;;;9.34;70.41;92027.19;2068173;69;20085;-72
2022/05/30 03:28:56;;;;;;;;;;;;;;;9.31;70.69;92027.72;2068418;69;20047;-72
2022/05/30 03:31:21;;;;;;;;;;;;;;;9.29;71.61;92036.03;2055367;69;20137;-72
2022/05/30 03:33:48;;;;;;;;;;;;;;;9.36;69.23;92038.56;2068226;69;20433;-72
2022/05/30 03:36:22;;;;;;;;;;;;;;;9.38;69.45;92040.75;2055497;70;20470;-72
2022/05/30 03:39:11;;;;;;;;;;;;;;;9.42;68.25;92035.34;2064455;69;20508;-72
2022/05/30 03:41:55;;;;;;;;;;;;;;;9.43;69.40;92036.81;2055378;69;20057;-72
2022/05/30 03:44:44;;;;;;;;;;;;;;;9.43;69.27;92043.16;2065930;69;20516;-72
2022/05/30 03:47:10;;;;;;;;;;;;;;;9.35;67.28;92039.91;2068114;69;20433;-72
2022/05/30 03:53:07;;;;;;;;;;;;;;;9.42;68.87;92049.38;2055277;69;20054;-71
2022/05/30 03:55:34;;;;;;;;;;;;;;;9.38;70.38;92041.47;2068074;69;20066;-74
2022/05/30 03:58:02;;;;;;;;;;;;;;;9.22;69.20;92049.03;2068309;69;20073;-72
2022/05/30 04:03:56;;;;;;;;;;;;;;;9.61;63.46;92049.03;2055303;69;20504;-72
2022/05/30 04:06:22;;;;;;;;;;;;;;;9.46;68.01;92051.69;2068392;69;20421;-72
2022/05/30 04:08:50;;;;;;;;;;;;;;;9.43;68.60;92042.41;2055280;70;20138;-72
2022/05/30 04:11:41;;;;;;;;;;;;;;;9.42;70.03;92049.38;2055808;69;20065;-72
2022/05/30 04:14:36;;;;;;;;;;;;;;;9.49;68.65;92047.66;2062892;69;20053;-72
2022/05/30 04:17:16;;;;;;;;;;;;;;;9.44;69.78;92043.91;2068331;69;20116;-72
2022/05/30 04:23:10;;;;;;;;;;;;;;;9.54;69.31;92029.66;2055338;69;20089;-72
2022/05/30 04:29:12;;;;;;;;;;;;;;;9.25;71.11;92028.09;2055375;69;20077;-72
2022/05/30 04:31:56;;;;;;;;;;;;;;;8.61;75.43;92034.38;2054931;69;20496;-72
2022/05/30 04:37:51;;;;;;;;;;;;;;;9.49;70.27;92051.19;2055847;69;20133;-72
2022/05/30 04:44:17;;;;;;;;;;;;;;;9.55;70.25;92050.78;2054628;70;20101;-72
2022/05/30 04:50:30;;;;;;;;;;;;;;;9.74;68.87;92056.03;2055790;69;20101;-73
2022/05/30 04:52:56;;;;;;;;;;;;;;;9.72;68.63;92060.81;2055313;70;20058;-72
2022/05/30 04:55:42;;;;;;;;;;;;;;;9.85;68.31;92057.28;2061238;69;20517;-73
2022/05/30 04:58:13;;;;;;;;;;;;;;;9.89;68.88;92054.69;2068851;69;20531;-72
2022/05/30 05:04:15;;;;;;;;;;;;;;;9.97;68.88;92046.69;2055725;69;20104;-72
2022/05/30 05:06:43;;;;;;;;;;;;;;;9.95;68.64;92043.06;2068706;69;20439;-72
2022/05/30 05:09:18;;;;;;;;;;;;;;;9.95;68.83;92057.13;2068663;69;20506;-72
2022/05/30 05:12:15;;;;;;;;;;;;;;;9.90;70.54;92053.38;2060049;69;20484;-72
2022/05/30 05:18:28;;;;;;;;;;;;;;;9.99;70.15;92049.63;2055530;69;20108;-72
2022/05/30 05:20:54;;;;;;;;;;;;;;;10.04;70.49;92056.19;2055388;70;20051;-72
2022/05/30 05:23:19;;;;;;;;;;;;;;;10.32;67.55;92057.69;2068357;69;20117;-73
2022/05/30 05:25:58;;;;;;;;;;;;;;;10.38;68.29;92055.16;2068684;69;20145;-73
2022/05/30 05:28:29;;;;;;;;;;;;;;;10.41;68.60;92053.19;2068549;69;20058;-73
2022/05/30 05:34:25;;;;;;;;;;;;;;;10.36;67.90;92052.25;2055460;69;20069;-73
2022/05/30 05:36:51;;;;;;;;;;;;;;;10.51;62.54;92048.09;2068225;69;20474;-73
2022/05/30 05:39:17;;;;;;;;;;;;;;;10.48;66.20;92040.88;2068688;69;20050;-73
2022/05/30 05:45:17;;;;;;;;;;;;;;;10.70;64.69;92032.81;2053550;69;20276;-72
2022/05/30 05:47:43;;;;;;;;;;;;;;;10.72;67.95;92040.63;2068795;69;20529;-72
2022/05/30 05:50:10;;;;;;;;;;;;;;;10.93;65.92;92040.28;2068585;69;20054;-74
2022/05/30 05:52:35;;;;;;;;;;;;;;;11.18;62.77;92040.13;2055735;70;20050;-73
2022/05/30 05:58:38;;;;;;;;;;;;;;;10.94;65.96;92036.81;2055769;69;20089;-72
2022/05/30 06:01:12;;;;;;;;;;;;;;;11.06;64.03;92035.97;2066023;69;20086;-72
2022/05/30 06:03:38;;;;;;;;;;;;;;;11.19;63.35;92038.75;2068616;69;20047;-72
2022/05/30 06:06:36;;;;;;;;;;;;;;;11.26;63.92;92030.56;2055983;69;20053;-72
2022/05/30 06:09:04;;;;;;;;;;;;;;;11.28;62.01;92022.97;2068697;69;20055;-72
2022/05/30 06:12:00;;;;;;;;;;;;;;;11.34;62.61;92028.16;2060167;69;20142;-71
2022/05/30 06:14:25;;;;;;;;;;;;;;;11.00;64.41;92032.88;2068501;69;20088;-72
2022/05/30 06:20:23;;;;;;;;;;;;;;;11.72;64.33;92043.28;2055650;69;20073;-74
2022/05/30 06:22:49;;;;;;;;;;;;;;;11.81;62.79;92038.75;2068514;69;20093;-74
2022/05/30 06:25:42;;;;;;;;;;;;;;;11.31;62.75;92046.31;2058831;69;20069;-73
2022/05/30 06:28:26;;;;;;;;;;;;;;;11.20;63.60;92050.75;2068755;69;20054;-73
2022/05/30 06:31:17;;;;;;;;;;;;;;;11.67;62.11;92044.47;2068739;69;20057;-74
2022/05/30 06:33:47;;;;;;;;;;;;;;;11.19;62.89;92046.47;2068738;69;20050;-73
2022/05/30 06:36:19;;;;;;;;;;;;;;;11.41;61.13;92032.72;2068762;69;20054;-73
2022/05/30 06:38:46;;;;;;;;;;;;;;;11.42;62.64;92031.34;2068770;69;20053;-74
2022/05/30 06:41:24;;;;;;;;;;;;;;;11.56;61.63;92037.66;2068807;69;20050;-74
2022/05/30 06:47:17;;;;;;;;;;;;;;;12.12;62.34;92030.31;2053451;70;20050;-74
2022/05/30 06:50:09;;;;;;;;;;;;;;;12.03;61.20;92031.34;2058451;69;20179;-74
2022/05/30 06:52:35;;;;;;;;;;;;;;;12.25;62.08;92036.50;2068744;69;20141;-74
2022/05/30 06:55:01;;;;;;;;;;;;;;;12.06;61.24;92035.72;2068738;69;20513;-74
2022/05/30 07:00:11;;;;;;;;;;;;;;;12.50;59.48;92047.47;2068778;69;20077;-75
2022/05/30 07:02:57;;;;;;;;;;;;;;;12.65;59.56;92038.28;2055539;69;20061;-73
2022/05/30 07:05:43;;;;;;;;;;;;;;;12.36;58.47;92033.47;2055751;69;20114;-74
2022/05/30 07:08:31;;;;;;;;;;;;;;;12.64;58.37;92039.63;2055698;69;20077;-75
2022/05/30 07:11:28;;;;;;;;;;;;;;;12.38;58.56;92038.50;2055974;69;20116;-73
2022/05/30 07:13:54;;;;;;;;;;;;;;;12.27;58.38;92045.06;2068617;69;20062;-74
2022/05/30 07:16:24;;;;;;;;;;;;;;;12.44;58.77;92044.41;2068364;69;20101;-73
2022/05/30 07:18:49;;;;;;;;;;;;;;;12.56;58.75;92030.81;2068266;69;20093;-73
2022/05/30 07:21:16;;;;;;;;;;;;;;;12.52;57.87;92032.75;2068333;69;20494;-74
2022/05/30 07:24:00;;;;;;;;;;;;;;;11.95;59.57;92037.31;2055471;69;20153;-71
2022/05/30 07:30:16;;;;;;;;;;;;;;;12.68;60.05;92025.66;2055671;69;20505;-73
2022/05/30 07:33:01;;;;;;;;;;;;;;;12.33;59.04;92026.31;2055595;69;20591;-74
2022/05/30 07:35:45;;;;;;;;;;;;;;;12.58;58.19;92018.88;2066713;69;20103;-74
2022/05/30 07:38:29;;;;;;;;;;;;;;;12.59;59.18;92014.69;2055657;69;20543;-75
2022/05/30 07:41:18;;;;;;;;;;;;;;;12.79;58.61;92021.19;2059717;69;20118;-74
2022/05/30 07:44:04;;;;;;;;;;;;;;;12.95;58.84;92009.81;2066425;69;20046;-74
2022/05/30 07:46:44;;;;;;;;;;;;;;;13.18;59.90;92005.81;2063759;69;20400;-75
2022/05/30 07:49:32;;;;;;;;;;;;;;;13.34;58.77;92011.41;2048360;70;20082;-74
2022/05/30 07:52:28;;;;;;;;;;;;;;;13.20;56.27;92003.81;2046204;70;20087;-73
2022/05/30 07:55:06;;;;;;;;;;;;;;;13.16;55.88;92009.28;2048441;70;20059;-73
2022/05/30 07:57:54;;;;;;;;;;;;;;;13.47;56.67;92007.69;2048429;70;20496;-74
2022/05/30 08:00:24;;;;;;;;;;;;;;;13.67;53.96;92004.91;2048450;70;20422;-74
2022/05/30 08:02:50;;;;;;;;;;;;;;;14.02;54.94;91998.47;2048969;70;20047;-74
2022/05/30 08:05:17;;;;;;;;;;;;;;;13.96;55.27;91993.28;2048362;70;20058;-74
2022/05/30 08:08:01;;;;;;;;;;;;;;;14.39;53.29;91994.84;2048958;70;20162;-74
2022/05/30 08:10:29;;;;;;;;;;;;;;;14.76;52.19;91998.25;2048317;70;20124;-74
2022/05/30 08:12:55;;;;;;;;;;;;;;;14.91;51.70;91998.06;2048268;70;20063;-74
2022/05/30 08:15:40;;;;;;;;;;;;;;;15.43;52.04;91994.75;2045898;70;20104;-74
2022/05/30 08:18:32;;;;;;;;;;;;;;;15.60;50.29;91993.16;2047906;70;20097;-74
2022/05/30 08:21:00;;;;;;;;;;;;;;;15.61;49.38;91989.66;2045576;70;20496;-74
2022/05/30 08:23:27;;;;;;;;;;;;;;;15.90;49.79;91993.41;2048275;70;20055;-74
2022/05/30 08:25:56;;;;;;;;;;;;;;;16.44;48.16;91990.66;2048276;70;20043;-74
2022/05/30 08:31:56;;;;;;;;;;;;;;;16.02;46.30;91997.31;2048864;70;20418;-73
2022/05/30 08:34:42;;;;;;;;;;;;;;;15.34;47.88;91995.88;2048264;70;20089;-73
2022/05/30 08:37:08;;;;;;;;;;;;;;;15.76;47.30;91999.38;2048824;70;20063;-73
2022/05/30 08:42:27;;;;;;;;;;;;;;;16.96;45.95;91985.72;2048244;70;20058;-74
2022/05/30 08:45:20;;;;;;;;;;;;;;;16.84;44.79;91976.88;2046616;70;20061;-73
2022/05/30 08:48:01;;;;;;;;;;;;;;;17.24;44.40;91968.66;2054123;70;20226;-75
2022/05/30 08:50:53;;;;;;;;;;;;;;;17.52;45.51;91976.41;2067990;69;20123;-74
2022/05/30 08:53:19;;;;;;;;;;;;;;;17.61;44.76;91971.66;2067246;69;20070;-74
2022/05/30 08:55:50;;;;;;;;;;;;;;;17.83;43.89;91972.19;2068054;69;20050;-74
2022/05/30 08:58:36;;;;;;;;;;;;;;;17.89;43.16;91968.75;2068272;69;20058;-75
2022/05/30 09:01:05;;;;;;;;;;;;;;;17.74;41.21;91976.97;2068398;69;20448;-74
2022/05/30 09:03:42;;;;;;;;;;;;;;;18.28;42.49;91970.31;2055344;69;20165;-74
2022/05/30 09:06:20;;;;;;;;;;;;;;;17.62;40.32;91976.66;2068441;69;20161;-74
2022/05/30 09:08:53;;;;;;;;;;;;;;;17.63;41.54;91972.41;2065652;69;20050;-74
2022/05/30 09:11:47;;;;;;;;;;;;;;;18.16;40.75;91973.59;2056967;69;20532;-74
2022/05/30 09:14:21;;;;;;;;;;;;;;;17.88;40.84;91981.53;2068341;69;20124;-74
2022/05/30 09:16:53;;;;;;;;;;;;;;;17.95;40.23;91968.88;2068395;69;20057;-74
2022/05/30 09:19:22;;;;;;;;;;;;;;;17.64;40.50;91973.88;2068191;69;20499;-73
2022/05/30 09:21:48;;;;;;;;;;;;;;;17.84;39.44;91970.06;2068717;69;20051;-74
2022/05/30 09:24:14;;;;;;;;;;;;;;;17.43;41.61;91974.78;2068909;69;20046;-74
2022/05/30 09:26:40;;;;;;;;;;;;;;;17.72;38.91;91982.56;2055860;69;20403;-73
2022/05/30 09:29:34;;;;;;;;;;;;;;;17.81;39.71;91982.78;2055781;69;20061;-73
2022/05/30 09:32:34;;;;;;;;;;;;;;;17.82;38.53;91989.91;2055744;69;20457;-73
2022/05/30 09:35:24;;;;;;;;;;;;;;;17.45;39.31;91986.91;2059769;69;20088;-73
2022/05/30 09:38:10;;;;;;;;;;;;;;;17.64;41.47;91988.09;2057192;69;20494;-74
2022/05/30 09:40:54;;;;;;;;;;;;;;;17.26;42.00;91988.59;2068803;69;20062;-74
2022/05/30 09:43:42;;;;;;;;;;;;;;;16.67;41.51;91992.72;2055916;69;20053;-74
2022/05/30 09:46:20;;;;;;;;;;;;;;;16.90;40.25;91991.22;2065833;69;20065;-74
2022/05/30 09:49:16;;;;;;;;;;;;;;;16.77;40.69;91995.16;2058054;69;20057;-77
2022/05/30 09:51:44;;;;;;;;;;;;;;;17.55;41.61;91986.47;2068721;69;20062;-74
2022/05/30 09:54:34;;;;;;;;;;;;;;;17.30;42.20;91979.44;2068727;69;20190;-74
2022/05/30 09:57:03;;;;;;;;;;;;;;;18.02;41.26;91982.56;2067323;69;20062;-73
2022/05/30 09:59:49;;;;;;;;;;;;;;;18.02;41.02;91979.72;2068701;69;20062;-75
2022/05/30 10:02:27;;;;;;;;;;;;;;;18.70;41.09;91984.69;2068751;69;20054;-74
2022/05/30 10:05:13;;;;;;;;;;;;;;;18.47;39.63;91983.50;2068594;69;20050;-73
2022/05/30 10:07:49;;;;;;;;;;;;;;;19.24;39.25;91980.66;2063016;69;20490;-73
2022/05/30 10:10:31;;;;;;;;;;;;;;;18.16;38.43;91978.59;2068694;69;20056;-73
2022/05/30 10:13:04;;;;;;;;;;;;;;;18.14;38.41;91979.25;2068649;69;20138;-72
2022/05/30 10:16:03;;;;;;;;;;;;;;;19.02;37.81;91981.72;2060350;69;20613;-74
2022/05/30 10:18:32;;;;;;;;;;;;;;;19.42;36.83;91972.41;2055612;69;20050;-73
2022/05/30 10:21:03;;;;;;;;;;;;;;;18.93;37.69;91971.59;2055791;70;20142;-73
2022/05/30 10:30:09;;;;;;;;;;;;;;;18.16;39.13;91965.06;2055674;69;20578;-73
2022/05/30 10:33:16;;;;;;;;;;;;;;;18.11;40.05;91966.38;2063944;69;20053;-76
2022/05/30 10:35:55;;;;;;;;;;;;;;;18.01;40.21;91963.31;2067136;69;20081;-76
2022/05/30 10:38:33;;;;;;;;;;;;;;;17.68;40.20;91971.09;2068429;69;20067;-74
2022/05/30 10:40:58;;;;;;;;;;;;;;;17.51;41.76;91972.84;2068506;69;20478;-73
2022/05/30 10:43:30;;;;;;;;;;;;;;;18.01;40.12;91981.13;2055580;70;20119;-74
2022/05/30 10:46:02;;;;;;;;;;;;;;;18.29;40.88;91989.56;2065741;69;20445;-74
2022/05/30 10:48:31;;;;;;;;;;;;;;;18.45;40.70;91994.84;2068513;69;20100;-74
2022/05/30 10:51:03;;;;;;;;;;;;;;;18.16;41.71;91996.41;2055545;70;20050;-73
2022/05/30 10:53:34;;;;;;;;;;;;;;;17.24;41.84;92002.06;2068596;69;20493;-71
2022/05/30 10:56:21;;;;;;;;;;;;;;;17.74;42.28;92002.59;2055621;69;20054;-72
2022/05/30 10:58:55;;;;;;;;;;;;;;;17.88;43.40;92007.88;2065764;69;20054;-71
2022/05/30 11:01:37;;;;;;;;;;;;;;;17.68;42.38;92013.06;2068586;69;20086;-72
2022/05/30 11:04:09;;;;;;;;;;;;;;;17.57;42.44;92017.06;2068518;69;20099;-72
2022/05/30 11:06:38;;;;;;;;;;;;;;;17.24;45.21;92030.50;2068619;69;20058;-73
2022/05/30 11:09:12;;;;;;;;;;;;;;;16.61;45.21;92035.19;2067484;69;20054;-72
2022/05/30 11:11:48;;;;;;;;;;;;;;;17.02;45.68;92048.44;2068133;69;20046;-74
2022/05/30 11:14:18;;;;;;;;;;;;;;;16.87;48.93;92060.81;2068031;69;20099;-74
2022/05/30 11:17:21;;;;;;;;;;;;;;;16.97;49.68;92074.56;2055294;69;20095;-73
2022/05/30 11:20:05;;;;;;;;;;;;;;;17.06;51.31;92084.06;2055241;70;20467;-73
2022/05/30 11:22:42;;;;;;;;;;;;;;;16.66;52.27;92093.59;2065562;69;20150;-73
2022/05/30 11:25:12;;;;;;;;;;;;;;;16.68;53.45;92116.41;2055143;70;20051;-73
2022/05/30 11:27:56;;;;;;;;;;;;;;;16.84;51.33;92121.84;2055526;69;20097;-74
2022/05/30 11:30:31;;;;;;;;;;;;;;;16.80;53.59;92141.63;2055409;69;20057;-73
2022/05/30 11:33:06;;;;;;;;;;;;;;;16.66;54.02;92150.41;2055426;70;20062;-73
2022/05/30 11:35:32;;;;;;;;;;;;;;;16.65;56.19;92148.25;2055553;69;20074;-73
2022/05/30 11:37:57;;;;;;;;;;;;;;;16.75;54.05;92151.41;2055441;70;20147;-72
2022/05/30 11:40:25;;;;;;;;;;;;;;;16.99;54.42;92154.22;2055382;70;20057;-73
2022/05/30 11:46:48;;;;;;;;;;;;;;;18.15;54.51;92157.31;2055309;69;20075;-72
2022/05/30 11:49:32;;;;;;;;;;;;;;;19.61;49.58;92167.63;2055720;69;20114;-72
2022/05/30 11:52:04;;;;;;;;;;;;;;;19.74;47.68;92169.25;2055307;70;20054;-72
2022/05/30 11:54:30;;;;;;;;;;;;;;;23.32;44.19;92171.38;2055417;70;20042;-73
2022/05/30 11:57:01;;;;;;;;;;;;;;;20.44;45.69;92162.59;2055422;70;20093;-72
2022/05/30 11:59:27;;;;;;;;;;;;;;;24.93;38.92;92160.28;2068387;69;20053;-73
2022/05/30 12:01:55;;;;;;;;;;;;;;;27.53;32.00;92183.31;2055262;70;20153;-71
2022/05/30 12:04:28;;;;;;;;;;;;;;;23.90;36.36;92175.97;2055387;70;20060;-73
2022/05/30 12:07:12;;;;;;;;;;;;;;;21.98;39.60;92176.78;2055384;70;20086;-73
2022/05/30 12:09:56;;;;;;;;;;;;;;;21.66;43.19;92177.88;2055351;70;20057;-72
2022/05/30 12:12:28;;;;;;;;;;;;;;;24.39;38.11;92161.00;2055282;70;20454;-73
2022/05/30 12:14:53;;;;;;;;;;;;;;;25.30;36.04;92160.94;2055416;70;20058;-72
2022/05/30 12:17:37;;;;;;;;;;;;;;;28.20;32.48;92164.47;2055401;70;20394;-73
2022/05/30 12:26:42;;;;;;;;;;;;;;;23.37;37.08;92146.28;2055014;69;20505;-72
2022/05/30 12:29:07;;;;;;;;;;;;;;;22.53;38.20;92160.09;2068237;69;20051;-73
2022/05/30 12:31:34;;;;;;;;;;;;;;;20.90;40.10;92161.16;2055374;69;20050;-71
2022/05/30 12:33:59;;;;;;;;;;;;;;;19.95;42.66;92153.22;2055208;70;20478;-72
2022/05/30 12:36:25;;;;;;;;;;;;;;;19.96;42.62;92151.09;2054927;70;20053;-71
2022/05/30 12:38:56;;;;;;;;;;;;;;;19.96;45.16;92146.09;2055299;70;20046;-71
2022/05/30 12:41:21;;;;;;;;;;;;;;;19.53;43.47;92153.88;2055276;70;20494;-72
2022/05/30 12:43:47;;;;;;;;;;;;;;;20.09;43.73;92169.16;2068236;69;20056;-72
2022/05/30 12:46:17;;;;;;;;;;;;;;;18.31;46.99;92168.34;2055049;70;20057;-73
2022/05/30 12:48:58;;;;;;;;;;;;;;;17.38;48.50;92164.56;2055218;69;20055;-73
2022/05/30 12:51:35;;;;;;;;;;;;;;;17.59;48.20;92157.28;2055243;70;20078;-72
2022/05/30 12:54:01;;;;;;;;;;;;;;;18.45;46.13;92153.72;2055328;70;20145;-73
2022/05/30 12:56:43;;;;;;;;;;;;;;;18.35;46.19;92167.72;2055536;70;20157;-73
2022/05/30 12:59:17;;;;;;;;;;;;;;;18.12;46.79;92175.75;2055808;70;20051;-72
2022/05/30 13:01:42;;;;;;;;;;;;;;;17.67;48.26;92173.84;2055965;70;20050;-73
2022/05/30 13:04:25;;;;;;;;;;;;;;;17.90;47.38;92172.34;2055736;70;20054;-72
2022/05/30 13:06:56;;;;;;;;;;;;;;;17.79;48.04;92188.44;2055719;70;20073;-72
2022/05/30 13:09:22;;;;;;;;;;;;;;;17.92;49.74;92189.50;2055821;69;20082;-71
2022/05/30 13:12:06;;;;;;;;;;;;;;;17.95;51.49;92193.81;2055685;70;20155;-71
2022/05/30 13:14:40;;;;;;;;;;;;;;;17.90;50.16;92203.66;2055709;70;20073;-71
2022/05/30 13:17:18;;;;;;;;;;;;;;;17.74;51.07;92221.78;2068630;69;20066;-72
2022/05/30 13:19:46;;;;;;;;;;;;;;;17.72;52.94;92226.66;2055549;70;20055;-70
2022/05/30 13:22:11;;;;;;;;;;;;;;;17.71;51.40;92233.75;2068614;69;20139;-71
2022/05/30 13:24:38;;;;;;;;;;;;;;;17.72;51.14;92241.59;2055538;70;20145;-72
2022/05/30 13:27:03;;;;;;;;;;;;;;;17.47;53.77;92251.59;2055276;69;20445;-72
2022/05/30 13:29:29;;;;;;;;;;;;;;;17.44;55.01;92252.94;2055572;70;20047;-73
2022/05/30 13:31:54;;;;;;;;;;;;;;;17.40;53.27;92267.03;2068690;69;20490;-72
2022/05/30 13:37:54;;;;;;;;;;;;;;;16.84;56.21;92278.19;2055729;69;20513;-73
2022/05/30 13:40:23;;;;;;;;;;;;;;;16.84;55.55;92289.53;2055694;70;20050;-74
2022/05/30 13:42:53;;;;;;;;;;;;;;;16.88;55.86;92289.69;2055779;70;20061;-72
2022/05/30 13:45:23;;;;;;;;;;;;;;;16.80;56.63;92295.09;2055693;70;20130;-74
2022/05/30 13:47:49;;;;;;;;;;;;;;;16.64;57.96;92300.97;2055823;69;20081;-72
2022/05/30 13:50:18;;;;;;;;;;;;;;;16.75;56.30;92313.41;2055496;70;20483;-73
2022/05/30 13:52:44;;;;;;;;;;;;;;;16.42;58.67;92314.47;2055426;69;20176;-71
2022/05/30 13:58:50;;;;;;;;;;;;;;;16.48;56.45;92320.34;2055633;69;20145;-72
2022/05/30 14:04:45;;;;;;;;;;;;;;;16.20;57.54;92320.13;2055567;69;20441;-72
2022/05/30 14:07:18;;;;;;;;;;;;;;;16.18;57.55;92331.41;2055590;69;20047;-72
2022/05/30 14:13:19;;;;;;;;;;;;;;;16.12;57.76;92320.56;2055733;69;20095;-72
2022/05/30 14:15:55;;;;;;;;;;;;;;;15.88;59.62;92320.44;2055486;70;20456;-72
2022/05/30 14:21:50;;;;;;;;;;;;;;;16.17;58.93;92324.25;2055612;69;20045;-72
2022/05/30 14:27:47;;;;;;;;;;;;;;;16.11;58.22;92324.78;2055289;69;20046;-72
2022/05/30 14:30:25;;;;;;;;;;;;;;;15.31;60.69;92326.88;2055256;69;20090;-72
2022/05/30 14:33:05;;;;;;;;;;;;;;;15.46;61.03;92334.53;2055576;70;20047;-73
2022/05/30 14:35:31;;;;;;;;;;;;;;;15.38;61.25;92330.66;2055519;69;20561;-73
2022/05/30 14:37:56;;;;;;;;;;;;;;;15.83;60.04;92344.41;2055445;70;20134;-72
2022/05/30 14:40:22;;;;;;;;;;;;;;;15.87;60.00;92335.31;2055438;70;20542;-72
2022/05/30 14:42:53;;;;;;;;;;;;;;;16.07;58.99;92346.63;2055451;70;20093;-72
2022/05/30 14:45:27;;;;;;;;;;;;;;;15.80;58.42;92342.88;2055514;70;20086;-72
2022/05/30 14:47:54;;;;;;;;;;;;;;;15.59;58.43;92343.50;2055409;70;20051;-72
2022/05/30 14:50:27;;;;;;;;;;;;;;;15.65;57.98;92343.75;2055509;70;20050;-72
2022/05/30 14:52:55;;;;;;;;;;;;;;;16.01;56.41;92353.56;2055526;70;20098;-72
2022/05/30 14:55:30;;;;;;;;;;;;;;;15.90;58.46;92353.88;2055417;70;20054;-73
2022/05/30 14:57:57;;;;;;;;;;;;;;;15.94;59.35;92356.84;2055214;70;20082;-71
2022/05/30 15:00:29;;;;;;;;;;;;;;;16.12;59.10;92351.78;2055145;69;20042;-71
2022/05/30 15:05:38;;;;;;;;;;;;;;;16.26;58.95;92354.41;2055662;70;20387;-71
2022/05/30 15:08:04;;;;;;;;;;;;;;;16.33;57.51;92353.22;2055417;70;20057;-72
2022/05/30 15:10:29;;;;;;;;;;;;;;;16.29;58.03;92353.09;2055587;70;20053;-71
2022/05/30 15:12:55;;;;;;;;;;;;;;;16.31;56.98;92355.25;2055538;70;20119;-72
2022/05/30 15:15:20;;;;;;;;;;;;;;;16.57;55.60;92363.97;2055437;70;20047;-72
2022/05/30 15:17:48;;;;;;;;;;;;;;;16.47;55.00;92362.22;2055233;70;20046;-72
2022/05/30 15:23:41;;;;;;;;;;;;;;;16.85;54.76;92379.13;2055355;69;20050;-71
2022/05/30 15:26:06;;;;;;;;;;;;;;;16.87;56.99;92373.50;2055478;70;20062;-71
2022/05/30 15:32:05;;;;;;;;;;;;;;;16.90;54.94;92375.00;2055325;69;20119;-72
2022/05/30 15:34:31;;;;;;;;;;;;;;;15.97;57.02;92366.88;2055473;70;20057;-73
2022/05/30 15:36:59;;;;;;;;;;;;;;;16.63;55.23;92375.50;2055472;70;20062;-74
2022/05/30 15:39:26;;;;;;;;;;;;;;;16.55;55.76;92375.25;2068336;69;20086;-71
2022/05/30 15:45:21;;;;;;;;;;;;;;;16.59;56.33;92373.28;2055437;69;20053;-71
2022/05/30 15:47:46;;;;;;;;;;;;;;;16.70;54.69;92368.66;2055260;70;20062;-71
2022/05/30 15:59:15;;;;;;;;;;;;;;;16.63;55.20;92376.25;2055151;70;20050;-72
2022/05/30 16:01:41;;;;;;;;;;;;;;;16.93;55.59;92379.38;2055168;70;20057;-72
2022/05/30 16:07:34;;;;;;;;;;;;;;;17.06;54.60;92382.63;2055539;69;20054;-72